sensor_id;sensor_type;location;lat;lon;timestamp;P1;durP1;ratioP1;P2;durP2;ratioP2
34098;SDS011;20374;49.474;10.944;2022-08-19T00:00:36;11.90;;;9.63;;
34098;SDS011;20374;49.474;10.944;2022-08-19T00:03:03;12.48;;;10.40;;
34098;SDS011;20374;49.474;10.944;2022-08-19T00:05:30;12.98;;;11.38;;
34098;SDS011;20374;49.474;10.944;2022-08-19T00:07:56;12.35;;;11.05;;
34098;SDS011;20374;49.474;10.944;2022-08-19T00:10:23;11.95;;;10.73;;
34098;SDS011;20374;49.474;10.944;2022-08-19T00:12:50;12.23;;;11.02;;
34098;SDS011;20374;49.474;10.944;2022-08-19T00:15:17;13.45;;;11.20;;
34098;SDS011;20374;49.474;10.944;2022-08-19T00:17:45;12.95;;;11.30;;
34098;SDS011;20374;49.474;10.944;2022-08-19T00:20:13;14.15;;;11.45;;
34098;SDS011;20374;49.474;10.944;2022-08-19T00:22:43;12.55;;;11.35;;
34098;SDS011;20374;49.474;10.944;2022-08-19T00:25:11;12.25;;;11.02;;
34098;SDS011;20374;49.474;10.944;2022-08-19T00:27:37;12.02;;;10.73;;
34098;SDS011;20374;49.474;10.944;2022-08-19T00:30:04;12.30;;;10.80;;
34098;SDS011;20374;49.474;10.944;2022-08-19T00:32:32;12.20;;;10.95;;
34098;SDS011;20374;49.474;10.944;2022-08-19T00:34:59;11.57;;;10.38;;
34098;SDS011;20374;49.474;10.944;2022-08-19T00:37:26;12.40;;;11.20;;
34098;SDS011;20374;49.474;10.944;2022-08-19T00:39:52;12.15;;;10.73;;
34098;SDS011;20374;49.474;10.944;2022-08-19T00:42:20;13.57;;;11.45;;
34098;SDS011;20374;49.474;10.944;2022-08-19T00:44:47;12.85;;;10.85;;
34098;SDS011;20374;49.474;10.944;2022-08-19T00:47:14;13.27;;;11.10;;
34098;SDS011;20374;49.474;10.944;2022-08-19T00:49:59;11.80;;;10.60;;
34098;SDS011;20374;49.474;10.944;2022-08-19T00:52:32;12.60;;;10.70;;
34098;SDS011;20374;49.474;10.944;2022-08-19T00:55:00;11.73;;;10.52;;
34098;SDS011;20374;49.474;10.944;2022-08-19T00:57:29;12.10;;;10.75;;
34098;SDS011;20374;49.474;10.944;2022-08-19T01:00:05;12.98;;;11.63;;
34098;SDS011;20374;49.474;10.944;2022-08-19T01:02:36;13.43;;;11.20;;
34098;SDS011;20374;49.474;10.944;2022-08-19T01:05:05;12.68;;;11.38;;
34098;SDS011;20374;49.474;10.944;2022-08-19T01:07:33;13.25;;;11.93;;
34098;SDS011;20374;49.474;10.944;2022-08-19T01:10:00;14.02;;;11.98;;
34098;SDS011;20374;49.474;10.944;2022-08-19T01:12:27;12.10;;;10.75;;
34098;SDS011;20374;49.474;10.944;2022-08-19T01:14:53;14.10;;;11.60;;
34098;SDS011;20374;49.474;10.944;2022-08-19T01:17:19;13.40;;;12.00;;
34098;SDS011;20374;49.474;10.944;2022-08-19T01:19:46;12.20;;;11.00;;
34098;SDS011;20374;49.474;10.944;2022-08-19T01:22:19;14.63;;;12.35;;
34098;SDS011;20374;49.474;10.944;2022-08-19T01:24:55;13.18;;;11.77;;
34098;SDS011;20374;49.474;10.944;2022-08-19T01:27:22;13.80;;;11.93;;
34098;SDS011;20374;49.474;10.944;2022-08-19T01:29:48;13.13;;;11.73;;
34098;SDS011;20374;49.474;10.944;2022-08-19T01:32:15;14.63;;;11.97;;
34098;SDS011;20374;49.474;10.944;2022-08-19T01:34:42;12.98;;;11.60;;
34098;SDS011;20374;49.474;10.944;2022-08-19T01:37:13;13.45;;;11.57;;
34098;SDS011;20374;49.474;10.944;2022-08-19T01:39:40;14.60;;;12.18;;
34098;SDS011;20374;49.474;10.944;2022-08-19T01:42:07;13.90;;;12.57;;
34098;SDS011;20374;49.474;10.944;2022-08-19T01:44:35;13.10;;;11.82;;
34098;SDS011;20374;49.474;10.944;2022-08-19T01:47:01;13.30;;;11.75;;
34098;SDS011;20374;49.474;10.944;2022-08-19T01:49:28;14.23;;;12.73;;
34098;SDS011;20374;49.474;10.944;2022-08-19T01:51:55;12.75;;;11.43;;
34098;SDS011;20374;49.474;10.944;2022-08-19T01:54:21;14.60;;;13.10;;
34098;SDS011;20374;49.474;10.944;2022-08-19T01:56:49;13.02;;;11.52;;
34098;SDS011;20374;49.474;10.944;2022-08-19T01:59:19;15.70;;;12.65;;
34098;SDS011;20374;49.474;10.944;2022-08-19T02:01:46;13.93;;;12.07;;
34098;SDS011;20374;49.474;10.944;2022-08-19T02:04:12;14.98;;;11.60;;
34098;SDS011;20374;49.474;10.944;2022-08-19T02:06:39;14.02;;;12.52;;
34098;SDS011;20374;49.474;10.944;2022-08-19T02:09:05;13.82;;;12.40;;
34098;SDS011;20374;49.474;10.944;2022-08-19T02:11:33;13.82;;;12.35;;
34098;SDS011;20374;49.474;10.944;2022-08-19T02:14:01;14.80;;;13.05;;
34098;SDS011;20374;49.474;10.944;2022-08-19T02:16:32;14.63;;;13.10;;
34098;SDS011;20374;49.474;10.944;2022-08-19T02:18:58;13.80;;;12.38;;
34098;SDS011;20374;49.474;10.944;2022-08-19T02:21:27;15.65;;;12.40;;
34098;SDS011;20374;49.474;10.944;2022-08-19T02:23:54;13.38;;;11.73;;
34098;SDS011;20374;49.474;10.944;2022-08-19T02:26:20;14.40;;;11.90;;
34098;SDS011;20374;49.474;10.944;2022-08-19T02:28:46;14.10;;;12.10;;
34098;SDS011;20374;49.474;10.944;2022-08-19T02:31:14;16.17;;;13.30;;
34098;SDS011;20374;49.474;10.944;2022-08-19T02:33:43;16.38;;;13.13;;
34098;SDS011;20374;49.474;10.944;2022-08-19T02:36:10;16.52;;;13.75;;
34098;SDS011;20374;49.474;10.944;2022-08-19T02:38:37;16.40;;;12.18;;
34098;SDS011;20374;49.474;10.944;2022-08-19T02:41:07;14.90;;;12.07;;
34098;SDS011;20374;49.474;10.944;2022-08-19T02:43:37;15.30;;;12.65;;
34098;SDS011;20374;49.474;10.944;2022-08-19T02:46:20;15.02;;;12.35;;
34098;SDS011;20374;49.474;10.944;2022-08-19T02:48:49;15.77;;;13.27;;
34098;SDS011;20374;49.474;10.944;2022-08-19T02:51:21;15.75;;;12.63;;
34098;SDS011;20374;49.474;10.944;2022-08-19T02:53:49;13.43;;;11.20;;
34098;SDS011;20374;49.474;10.944;2022-08-19T02:56:15;16.05;;;12.63;;
34098;SDS011;20374;49.474;10.944;2022-08-19T02:58:42;14.00;;;11.50;;
34098;SDS011;20374;49.474;10.944;2022-08-19T03:01:09;14.75;;;12.98;;
34098;SDS011;20374;49.474;10.944;2022-08-19T03:03:37;15.00;;;12.48;;
34098;SDS011;20374;49.474;10.944;2022-08-19T03:06:11;14.27;;;12.30;;
34098;SDS011;20374;49.474;10.944;2022-08-19T03:08:38;15.30;;;13.10;;
34098;SDS011;20374;49.474;10.944;2022-08-19T03:11:06;15.38;;;12.10;;
34098;SDS011;20374;49.474;10.944;2022-08-19T03:13:42;17.60;;;11.95;;
34098;SDS011;20374;49.474;10.944;2022-08-19T03:16:08;15.02;;;13.48;;
34098;SDS011;20374;49.474;10.944;2022-08-19T03:18:36;16.20;;;12.37;;
34098;SDS011;20374;49.474;10.944;2022-08-19T03:21:02;13.77;;;11.93;;
34098;SDS011;20374;49.474;10.944;2022-08-19T03:23:28;15.52;;;12.65;;
34098;SDS011;20374;49.474;10.944;2022-08-19T03:25:54;15.07;;;13.38;;
34098;SDS011;20374;49.474;10.944;2022-08-19T03:28:20;15.20;;;13.17;;
34098;SDS011;20374;49.474;10.944;2022-08-19T03:31:00;15.27;;;12.75;;
34098;SDS011;20374;49.474;10.944;2022-08-19T03:33:28;17.48;;;13.00;;
34098;SDS011;20374;49.474;10.944;2022-08-19T03:36:06;17.33;;;13.55;;
34098;SDS011;20374;49.474;10.944;2022-08-19T03:38:36;14.45;;;12.70;;
34098;SDS011;20374;49.474;10.944;2022-08-19T03:41:04;15.57;;;13.05;;
34098;SDS011;20374;49.474;10.944;2022-08-19T03:43:32;13.88;;;12.43;;
34098;SDS011;20374;49.474;10.944;2022-08-19T03:46:00;17.58;;;14.15;;
34098;SDS011;20374;49.474;10.944;2022-08-19T03:48:29;14.63;;;12.88;;
34098;SDS011;20374;49.474;10.944;2022-08-19T03:50:56;17.65;;;13.77;;
34098;SDS011;20374;49.474;10.944;2022-08-19T03:53:24;14.85;;;13.25;;
34098;SDS011;20374;49.474;10.944;2022-08-19T03:55:52;18.15;;;13.18;;
34098;SDS011;20374;49.474;10.944;2022-08-19T03:58:19;16.98;;;13.27;;
34098;SDS011;20374;49.474;10.944;2022-08-19T04:00:45;16.08;;;12.40;;
34098;SDS011;20374;49.474;10.944;2022-08-19T04:03:11;17.65;;;14.43;;
34098;SDS011;20374;49.474;10.944;2022-08-19T04:05:37;16.02;;;13.07;;
34098;SDS011;20374;49.474;10.944;2022-08-19T04:08:03;17.95;;;13.48;;
34098;SDS011;20374;49.474;10.944;2022-08-19T04:10:36;16.73;;;13.85;;
34098;SDS011;20374;49.474;10.944;2022-08-19T04:13:04;17.90;;;13.65;;
34098;SDS011;20374;49.474;10.944;2022-08-19T04:15:31;18.02;;;13.40;;
34098;SDS011;20374;49.474;10.944;2022-08-19T04:18:04;16.73;;;13.38;;
34098;SDS011;20374;49.474;10.944;2022-08-19T04:20:33;20.30;;;13.65;;
34098;SDS011;20374;49.474;10.944;2022-08-19T04:23:07;17.33;;;13.23;;
34098;SDS011;20374;49.474;10.944;2022-08-19T04:25:41;18.47;;;13.17;;
34098;SDS011;20374;49.474;10.944;2022-08-19T04:28:08;16.48;;;13.57;;
34098;SDS011;20374;49.474;10.944;2022-08-19T04:30:43;14.05;;;12.38;;
34098;SDS011;20374;49.474;10.944;2022-08-19T04:33:14;18.15;;;13.13;;
34098;SDS011;20374;49.474;10.944;2022-08-19T04:35:46;16.63;;;13.93;;
34098;SDS011;20374;49.474;10.944;2022-08-19T04:38:14;15.57;;;12.77;;
34098;SDS011;20374;49.474;10.944;2022-08-19T04:40:47;16.55;;;13.23;;
34098;SDS011;20374;49.474;10.944;2022-08-19T04:43:37;14.70;;;12.57;;
34098;SDS011;20374;49.474;10.944;2022-08-19T04:46:07;13.85;;;12.10;;
34098;SDS011;20374;49.474;10.944;2022-08-19T04:48:35;15.38;;;12.63;;
34098;SDS011;20374;49.474;10.944;2022-08-19T04:51:04;14.33;;;11.10;;
34098;SDS011;20374;49.474;10.944;2022-08-19T04:53:34;16.33;;;12.80;;
34098;SDS011;20374;49.474;10.944;2022-08-19T04:56:04;15.90;;;12.55;;
34098;SDS011;20374;49.474;10.944;2022-08-19T04:58:32;14.65;;;11.73;;
34098;SDS011;20374;49.474;10.944;2022-08-19T05:00:58;15.55;;;13.85;;
34098;SDS011;20374;49.474;10.944;2022-08-19T05:03:27;16.50;;;13.38;;
34098;SDS011;20374;49.474;10.944;2022-08-19T05:06:04;18.05;;;12.55;;
34098;SDS011;20374;49.474;10.944;2022-08-19T05:08:32;14.40;;;12.82;;
34098;SDS011;20374;49.474;10.944;2022-08-19T05:11:00;16.25;;;13.43;;
34098;SDS011;20374;49.474;10.944;2022-08-19T05:13:26;14.53;;;12.27;;
34098;SDS011;20374;49.474;10.944;2022-08-19T05:15:56;14.38;;;12.35;;
34098;SDS011;20374;49.474;10.944;2022-08-19T05:18:23;15.43;;;12.73;;
34098;SDS011;20374;49.474;10.944;2022-08-19T05:21:08;15.85;;;12.60;;
34098;SDS011;20374;49.474;10.944;2022-08-19T05:23:55;16.90;;;13.65;;
34098;SDS011;20374;49.474;10.944;2022-08-19T05:26:21;15.77;;;14.18;;
34098;SDS011;20374;49.474;10.944;2022-08-19T05:28:47;16.35;;;12.80;;
34098;SDS011;20374;49.474;10.944;2022-08-19T05:31:13;16.05;;;14.18;;
34098;SDS011;20374;49.474;10.944;2022-08-19T05:33:39;17.87;;;13.30;;
34098;SDS011;20374;49.474;10.944;2022-08-19T05:36:05;16.92;;;13.05;;
34098;SDS011;20374;49.474;10.944;2022-08-19T05:38:33;15.07;;;13.07;;
34098;SDS011;20374;49.474;10.944;2022-08-19T05:41:01;15.68;;;12.93;;
34098;SDS011;20374;49.474;10.944;2022-08-19T05:43:36;16.42;;;12.70;;
34098;SDS011;20374;49.474;10.944;2022-08-19T05:46:03;16.75;;;13.95;;
34098;SDS011;20374;49.474;10.944;2022-08-19T05:48:31;17.17;;;13.63;;
34098;SDS011;20374;49.474;10.944;2022-08-19T05:51:02;16.80;;;12.82;;
34098;SDS011;20374;49.474;10.944;2022-08-19T05:53:32;16.70;;;13.20;;
34098;SDS011;20374;49.474;10.944;2022-08-19T05:56:03;15.00;;;12.33;;
34098;SDS011;20374;49.474;10.944;2022-08-19T05:58:34;14.80;;;11.95;;
34098;SDS011;20374;49.474;10.944;2022-08-19T06:01:02;16.85;;;13.65;;
34098;SDS011;20374;49.474;10.944;2022-08-19T06:03:34;15.38;;;13.43;;
34098;SDS011;20374;49.474;10.944;2022-08-19T06:06:03;16.63;;;14.20;;
34098;SDS011;20374;49.474;10.944;2022-08-19T06:08:30;15.97;;;13.13;;
34098;SDS011;20374;49.474;10.944;2022-08-19T06:10:56;16.38;;;13.35;;
34098;SDS011;20374;49.474;10.944;2022-08-19T06:13:22;16.58;;;13.07;;
34098;SDS011;20374;49.474;10.944;2022-08-19T06:15:50;13.85;;;11.80;;
34098;SDS011;20374;49.474;10.944;2022-08-19T06:18:16;15.10;;;13.27;;
34098;SDS011;20374;49.474;10.944;2022-08-19T06:20:42;16.10;;;13.70;;
34098;SDS011;20374;49.474;10.944;2022-08-19T06:23:08;16.20;;;13.52;;
34098;SDS011;20374;49.474;10.944;2022-08-19T06:25:35;13.77;;;12.32;;
34098;SDS011;20374;49.474;10.944;2022-08-19T06:28:01;14.73;;;11.85;;
34098;SDS011;20374;49.474;10.944;2022-08-19T06:30:27;13.52;;;12.13;;
34098;SDS011;20374;49.474;10.944;2022-08-19T06:32:54;16.20;;;12.50;;
34098;SDS011;20374;49.474;10.944;2022-08-19T06:35:21;13.52;;;12.05;;
34098;SDS011;20374;49.474;10.944;2022-08-19T06:37:46;14.25;;;12.82;;
34098;SDS011;20374;49.474;10.944;2022-08-19T06:40:12;14.97;;;12.80;;
34098;SDS011;20374;49.474;10.944;2022-08-19T06:42:39;13.40;;;11.77;;
34098;SDS011;20374;49.474;10.944;2022-08-19T06:45:05;14.85;;;12.43;;
34098;SDS011;20374;49.474;10.944;2022-08-19T06:47:33;13.70;;;12.35;;
34098;SDS011;20374;49.474;10.944;2022-08-19T06:50:00;13.70;;;12.02;;
34098;SDS011;20374;49.474;10.944;2022-08-19T06:52:28;13.73;;;11.65;;
34098;SDS011;20374;49.474;10.944;2022-08-19T06:54:55;12.63;;;11.32;;
34098;SDS011;20374;49.474;10.944;2022-08-19T06:57:25;11.75;;;10.65;;
34098;SDS011;20374;49.474;10.944;2022-08-19T06:59:52;12.10;;;10.90;;
34098;SDS011;20374;49.474;10.944;2022-08-19T07:02:18;12.57;;;11.38;;
34098;SDS011;20374;49.474;10.944;2022-08-19T07:04:45;11.43;;;10.20;;
34098;SDS011;20374;49.474;10.944;2022-08-19T07:07:12;12.80;;;11.50;;
34098;SDS011;20374;49.474;10.944;2022-08-19T07:09:41;11.98;;;10.77;;
34098;SDS011;20374;49.474;10.944;2022-08-19T07:12:10;13.27;;;11.13;;
34098;SDS011;20374;49.474;10.944;2022-08-19T07:14:38;13.68;;;11.00;;
34098;SDS011;20374;49.474;10.944;2022-08-19T07:17:07;12.35;;;11.15;;
34098;SDS011;20374;49.474;10.944;2022-08-19T07:19:36;12.50;;;11.15;;
34098;SDS011;20374;49.474;10.944;2022-08-19T07:22:05;12.57;;;11.27;;
34098;SDS011;20374;49.474;10.944;2022-08-19T07:24:45;11.70;;;10.50;;
34098;SDS011;20374;49.474;10.944;2022-08-19T07:27:22;12.88;;;11.45;;
34098;SDS011;20374;49.474;10.944;2022-08-19T07:29:51;15.00;;;11.80;;
34098;SDS011;20374;49.474;10.944;2022-08-19T07:32:21;12.30;;;10.60;;
34098;SDS011;20374;49.474;10.944;2022-08-19T07:34:47;12.95;;;11.55;;
34098;SDS011;20374;49.474;10.944;2022-08-19T07:37:13;12.80;;;11.45;;
34098;SDS011;20374;49.474;10.944;2022-08-19T07:39:39;12.10;;;10.90;;
34098;SDS011;20374;49.474;10.944;2022-08-19T07:42:07;13.52;;;11.80;;
34098;SDS011;20374;49.474;10.944;2022-08-19T07:44:35;13.18;;;11.77;;
34098;SDS011;20374;49.474;10.944;2022-08-19T07:47:02;14.90;;;13.43;;
34098;SDS011;20374;49.474;10.944;2022-08-19T07:49:28;13.93;;;11.77;;
34098;SDS011;20374;49.474;10.944;2022-08-19T07:51:59;15.35;;;12.75;;
34098;SDS011;20374;49.474;10.944;2022-08-19T07:54:27;15.77;;;13.02;;
34098;SDS011;20374;49.474;10.944;2022-08-19T07:56:55;16.30;;;12.00;;
34098;SDS011;20374;49.474;10.944;2022-08-19T07:59:22;13.57;;;12.18;;
34098;SDS011;20374;49.474;10.944;2022-08-19T08:01:48;13.73;;;11.88;;
34098;SDS011;20374;49.474;10.944;2022-08-19T08:04:15;11.98;;;10.77;;
34098;SDS011;20374;49.474;10.944;2022-08-19T08:07:00;13.80;;;11.20;;
34098;SDS011;20374;49.474;10.944;2022-08-19T08:09:45;12.50;;;11.15;;
34098;SDS011;20374;49.474;10.944;2022-08-19T08:12:12;15.05;;;12.20;;
34098;SDS011;20374;49.474;10.944;2022-08-19T08:14:46;14.32;;;11.73;;
34098;SDS011;20374;49.474;10.944;2022-08-19T08:17:15;13.20;;;11.82;;
34098;SDS011;20374;49.474;10.944;2022-08-19T08:19:42;14.45;;;11.82;;
34098;SDS011;20374;49.474;10.944;2022-08-19T08:22:10;12.45;;;11.18;;
34098;SDS011;20374;49.474;10.944;2022-08-19T08:25:03;14.32;;;12.35;;
34098;SDS011;20374;49.474;10.944;2022-08-19T08:27:35;13.50;;;11.65;;
34098;SDS011;20374;49.474;10.944;2022-08-19T08:30:14;13.65;;;11.50;;
34098;SDS011;20374;49.474;10.944;2022-08-19T08:32:44;13.25;;;11.50;;
34098;SDS011;20374;49.474;10.944;2022-08-19T08:35:11;16.10;;;12.27;;
34098;SDS011;20374;49.474;10.944;2022-08-19T08:37:38;13.65;;;11.88;;
34098;SDS011;20374;49.474;10.944;2022-08-19T08:40:06;12.23;;;10.95;;
34098;SDS011;20374;49.474;10.944;2022-08-19T08:45:30;13.48;;;11.38;;
34098;SDS011;20374;49.474;10.944;2022-08-19T08:47:58;12.80;;;10.75;;
34098;SDS011;20374;49.474;10.944;2022-08-19T08:50:34;12.05;;;10.82;;
34098;SDS011;20374;49.474;10.944;2022-08-19T08:53:07;11.63;;;10.43;;
34098;SDS011;20374;49.474;10.944;2022-08-19T08:55:35;12.13;;;10.75;;
34098;SDS011;20374;49.474;10.944;2022-08-19T08:58:06;12.95;;;11.68;;
34098;SDS011;20374;49.474;10.944;2022-08-19T09:00:45;12.63;;;11.18;;
34098;SDS011;20374;49.474;10.944;2022-08-19T09:03:20;11.82;;;10.63;;
34098;SDS011;20374;49.474;10.944;2022-08-19T09:14:39;13.20;;;11.80;;
34098;SDS011;20374;49.474;10.944;2022-08-19T09:17:21;12.48;;;11.18;;
34098;SDS011;20374;49.474;10.944;2022-08-19T09:22:26;14.50;;;13.00;;
34098;SDS011;20374;49.474;10.944;2022-08-19T09:24:53;14.05;;;12.65;;
34098;SDS011;20374;49.474;10.944;2022-08-19T09:27:20;13.13;;;11.75;;
34098;SDS011;20374;49.474;10.944;2022-08-19T09:29:49;13.35;;;12.00;;
34098;SDS011;20374;49.474;10.944;2022-08-19T09:32:15;13.32;;;11.98;;
34098;SDS011;20374;49.474;10.944;2022-08-19T09:34:42;15.27;;;12.70;;
34098;SDS011;20374;49.474;10.944;2022-08-19T09:37:08;12.93;;;11.50;;
34098;SDS011;20374;49.474;10.944;2022-08-19T09:39:34;14.77;;;11.63;;
34098;SDS011;20374;49.474;10.944;2022-08-19T09:42:00;12.47;;;10.90;;
34098;SDS011;20374;49.474;10.944;2022-08-19T09:44:28;13.32;;;11.25;;
34098;SDS011;20374;49.474;10.944;2022-08-19T09:46:54;15.02;;;11.30;;
34098;SDS011;20374;49.474;10.944;2022-08-19T09:49:21;13.18;;;11.57;;
34098;SDS011;20374;49.474;10.944;2022-08-19T09:51:51;13.25;;;11.85;;
34098;SDS011;20374;49.474;10.944;2022-08-19T09:54:21;13.53;;;11.10;;
34098;SDS011;20374;49.474;10.944;2022-08-19T09:56:48;13.10;;;11.80;;
34098;SDS011;20374;49.474;10.944;2022-08-19T09:59:14;13.73;;;10.88;;
34098;SDS011;20374;49.474;10.944;2022-08-19T10:01:40;15.10;;;11.70;;
34098;SDS011;20374;49.474;10.944;2022-08-19T10:04:06;12.27;;;10.82;;
34098;SDS011;20374;49.474;10.944;2022-08-19T10:06:36;12.02;;;10.63;;
34098;SDS011;20374;49.474;10.944;2022-08-19T10:09:04;12.63;;;11.23;;
34098;SDS011;20374;49.474;10.944;2022-08-19T10:11:33;12.25;;;10.95;;
34098;SDS011;20374;49.474;10.944;2022-08-19T10:14:00;12.65;;;11.30;;
34098;SDS011;20374;49.474;10.944;2022-08-19T10:16:27;11.75;;;10.65;;
34098;SDS011;20374;49.474;10.944;2022-08-19T10:18:54;12.10;;;10.75;;
34098;SDS011;20374;49.474;10.944;2022-08-19T10:21:22;11.55;;;10.43;;
34098;SDS011;20374;49.474;10.944;2022-08-19T10:23:52;12.45;;;11.15;;
34098;SDS011;20374;49.474;10.944;2022-08-19T10:26:26;12.18;;;10.98;;
34098;SDS011;20374;49.474;10.944;2022-08-19T10:28:55;12.40;;;10.95;;
34098;SDS011;20374;49.474;10.944;2022-08-19T10:31:22;11.27;;;10.20;;
34098;SDS011;20374;49.474;10.944;2022-08-19T10:33:51;12.40;;;11.20;;
34098;SDS011;20374;49.474;10.944;2022-08-19T10:36:27;12.43;;;10.95;;
34098;SDS011;20374;49.474;10.944;2022-08-19T10:38:56;11.68;;;10.48;;
34098;SDS011;20374;49.474;10.944;2022-08-19T10:41:27;12.00;;;10.80;;
34098;SDS011;20374;49.474;10.944;2022-08-19T10:44:00;11.25;;;10.15;;
34098;SDS011;20374;49.474;10.944;2022-08-19T10:46:28;11.65;;;10.13;;
34098;SDS011;20374;49.474;10.944;2022-08-19T10:49:02;12.48;;;11.27;;
34098;SDS011;20374;49.474;10.944;2022-08-19T10:51:29;10.98;;;9.98;;
34098;SDS011;20374;49.474;10.944;2022-08-19T10:54:13;11.18;;;9.82;;
34098;SDS011;20374;49.474;10.944;2022-08-19T10:56:40;12.32;;;11.10;;
34098;SDS011;20374;49.474;10.944;2022-08-19T11:01:44;11.85;;;10.65;;
34098;SDS011;20374;49.474;10.944;2022-08-19T11:04:11;16.23;;;10.57;;
34098;SDS011;20374;49.474;10.944;2022-08-19T11:06:39;10.95;;;9.90;;
34098;SDS011;20374;49.474;10.944;2022-08-19T11:09:07;11.48;;;10.38;;
34098;SDS011;20374;49.474;10.944;2022-08-19T11:11:33;11.73;;;9.85;;
34098;SDS011;20374;49.474;10.944;2022-08-19T11:14:09;11.88;;;10.00;;
34098;SDS011;20374;49.474;10.944;2022-08-19T11:16:36;11.32;;;10.13;;
34098;SDS011;20374;49.474;10.944;2022-08-19T11:19:04;11.20;;;10.02;;
34098;SDS011;20374;49.474;10.944;2022-08-19T11:21:39;11.48;;;10.27;;
34098;SDS011;20374;49.474;10.944;2022-08-19T11:24:08;12.15;;;10.95;;
34098;SDS011;20374;49.474;10.944;2022-08-19T11:26:37;10.48;;;9.48;;
34098;SDS011;20374;49.474;10.944;2022-08-19T11:29:04;11.65;;;10.57;;
34098;SDS011;20374;49.474;10.944;2022-08-19T11:31:36;12.32;;;11.13;;
34098;SDS011;20374;49.474;10.944;2022-08-19T11:34:05;10.82;;;9.73;;
34098;SDS011;20374;49.474;10.944;2022-08-19T11:36:32;11.93;;;9.88;;
34098;SDS011;20374;49.474;10.944;2022-08-19T11:39:00;10.98;;;9.80;;
34098;SDS011;20374;49.474;10.944;2022-08-19T11:41:26;11.93;;;10.75;;
34098;SDS011;20374;49.474;10.944;2022-08-19T11:43:53;10.73;;;9.60;;
34098;SDS011;20374;49.474;10.944;2022-08-19T11:46:21;11.00;;;9.85;;
34098;SDS011;20374;49.474;10.944;2022-08-19T11:48:49;10.90;;;9.90;;
34098;SDS011;20374;49.474;10.944;2022-08-19T11:51:17;10.35;;;9.38;;
34098;SDS011;20374;49.474;10.944;2022-08-19T11:53:45;10.48;;;9.57;;
34098;SDS011;20374;49.474;10.944;2022-08-19T11:56:11;10.50;;;9.50;;
34098;SDS011;20374;49.474;10.944;2022-08-19T11:58:38;10.55;;;9.55;;
34098;SDS011;20374;49.474;10.944;2022-08-19T12:01:05;10.68;;;9.70;;
34098;SDS011;20374;49.474;10.944;2022-08-19T12:03:33;10.60;;;9.60;;
34098;SDS011;20374;49.474;10.944;2022-08-19T12:06:02;10.32;;;9.40;;
34098;SDS011;20374;49.474;10.944;2022-08-19T12:08:30;10.60;;;9.60;;
34098;SDS011;20374;49.474;10.944;2022-08-19T12:10:56;11.38;;;10.27;;
34098;SDS011;20374;49.474;10.944;2022-08-19T12:13:22;10.57;;;9.52;;
34098;SDS011;20374;49.474;10.944;2022-08-19T12:15:49;12.10;;;11.00;;
34098;SDS011;20374;49.474;10.944;2022-08-19T12:18:15;11.55;;;10.48;;
34098;SDS011;20374;49.474;10.944;2022-08-19T12:20:41;11.38;;;10.35;;
34098;SDS011;20374;49.474;10.944;2022-08-19T12:23:08;11.65;;;10.55;;
34098;SDS011;20374;49.474;10.944;2022-08-19T12:25:35;11.57;;;10.57;;
34098;SDS011;20374;49.474;10.944;2022-08-19T12:28:02;13.70;;;10.60;;
34098;SDS011;20374;49.474;10.944;2022-08-19T12:30:28;10.70;;;9.63;;
34098;SDS011;20374;49.474;10.944;2022-08-19T12:32:54;12.27;;;11.07;;
34098;SDS011;20374;49.474;10.944;2022-08-19T12:35:20;13.50;;;11.95;;
34098;SDS011;20374;49.474;10.944;2022-08-19T12:37:47;12.52;;;11.23;;
34098;SDS011;20374;49.474;10.944;2022-08-19T12:40:16;12.77;;;11.40;;
34098;SDS011;20374;49.474;10.944;2022-08-19T12:42:43;12.35;;;10.82;;
34098;SDS011;20374;49.474;10.944;2022-08-19T12:45:09;13.75;;;12.45;;
34098;SDS011;20374;49.474;10.944;2022-08-19T12:47:37;14.18;;;12.68;;
34098;SDS011;20374;49.474;10.944;2022-08-19T12:50:03;13.93;;;11.88;;
34098;SDS011;20374;49.474;10.944;2022-08-19T12:52:31;18.23;;;13.50;;
34098;SDS011;20374;49.474;10.944;2022-08-19T12:54:57;17.13;;;13.30;;
34098;SDS011;20374;49.474;10.944;2022-08-19T12:57:24;16.17;;;13.02;;
34098;SDS011;20374;49.474;10.944;2022-08-19T12:59:51;20.80;;;14.25;;
34098;SDS011;20374;49.474;10.944;2022-08-19T13:02:18;17.20;;;14.90;;
34098;SDS011;20374;49.474;10.944;2022-08-19T13:04:45;16.50;;;14.18;;
34098;SDS011;20374;49.474;10.944;2022-08-19T13:07:10;21.17;;;15.23;;
34098;SDS011;20374;49.474;10.944;2022-08-19T13:09:36;16.20;;;14.20;;
34098;SDS011;20374;49.474;10.944;2022-08-19T13:12:03;19.92;;;15.40;;
34098;SDS011;20374;49.474;10.944;2022-08-19T13:14:33;18.02;;;15.07;;
34098;SDS011;20374;49.474;10.944;2022-08-19T13:17:00;20.10;;;15.30;;
34098;SDS011;20374;49.474;10.944;2022-08-19T13:19:26;18.63;;;14.60;;
34098;SDS011;20374;49.474;10.944;2022-08-19T13:21:53;19.95;;;15.77;;
34098;SDS011;20374;49.474;10.944;2022-08-19T13:24:20;21.50;;;16.48;;
34098;SDS011;20374;49.474;10.944;2022-08-19T13:26:47;21.08;;;16.52;;
34098;SDS011;20374;49.474;10.944;2022-08-19T13:29:13;23.50;;;16.05;;
34098;SDS011;20374;49.474;10.944;2022-08-19T13:31:57;22.02;;;16.65;;
34098;SDS011;20374;49.474;10.944;2022-08-19T13:34:42;19.58;;;15.23;;
34098;SDS011;20374;49.474;10.944;2022-08-19T13:37:08;21.00;;;16.60;;
34098;SDS011;20374;49.474;10.944;2022-08-19T13:39:34;22.70;;;16.10;;
34098;SDS011;20374;49.474;10.944;2022-08-19T13:42:01;18.58;;;15.77;;
34098;SDS011;20374;49.474;10.944;2022-08-19T13:44:29;20.65;;;15.35;;
34098;SDS011;20374;49.474;10.944;2022-08-19T13:47:04;18.08;;;14.95;;
34098;SDS011;20374;49.474;10.944;2022-08-19T13:49:31;18.92;;;16.50;;
34098;SDS011;20374;49.474;10.944;2022-08-19T13:51:59;18.88;;;16.67;;
34098;SDS011;20374;49.474;10.944;2022-08-19T13:54:25;21.80;;;15.87;;
34098;SDS011;20374;49.474;10.944;2022-08-19T13:56:52;19.52;;;16.02;;
34098;SDS011;20374;49.474;10.944;2022-08-19T13:59:18;20.27;;;16.40;;
34098;SDS011;20374;49.474;10.944;2022-08-19T14:01:44;18.48;;;15.38;;
34098;SDS011;20374;49.474;10.944;2022-08-19T14:04:10;19.85;;;15.63;;
34098;SDS011;20374;49.474;10.944;2022-08-19T14:06:36;19.98;;;17.08;;
34098;SDS011;20374;49.474;10.944;2022-08-19T14:09:02;22.00;;;17.25;;
34098;SDS011;20374;49.474;10.944;2022-08-19T14:11:29;20.20;;;16.48;;
34098;SDS011;20374;49.474;10.944;2022-08-19T14:13:55;18.98;;;15.15;;
34098;SDS011;20374;49.474;10.944;2022-08-19T14:16:21;24.40;;;15.47;;
34098;SDS011;20374;49.474;10.944;2022-08-19T14:18:47;19.23;;;15.35;;
34098;SDS011;20374;49.474;10.944;2022-08-19T14:21:14;19.63;;;15.45;;
34098;SDS011;20374;49.474;10.944;2022-08-19T14:23:42;21.38;;;15.73;;
34098;SDS011;20374;49.474;10.944;2022-08-19T14:26:10;22.33;;;16.23;;
34098;SDS011;20374;49.474;10.944;2022-08-19T14:28:39;20.77;;;15.45;;
34098;SDS011;20374;49.474;10.944;2022-08-19T14:31:08;20.80;;;15.73;;
34098;SDS011;20374;49.474;10.944;2022-08-19T14:33:38;20.50;;;15.65;;